Latest Coastal Weather Observations for Burnie Port

IDT60701

Issued at 12:52 pm EST Monday 20 May 2019 (issued every 10 minutes, with the page automatically refreshed every 10 minutes)

About coastal observations | Map of coastal stations | Coastal observations for TAS | Marine services | Other Formats
Station Details ID: 091344 Name: BURNIE NTC AWS Lat: -41.05 Lon: 145.91 Height: 0.0 m
Data from the previous 72 hours. | See also: Recent months for locations in Tasmania
Date/Time
EST
Wind Sea
Height
m
Swell Vis
km
Cloud Weather Temp
°C
Press
hPa
Rain since
9am
mm
Dir  Spd
kts
Gust
kts
Height
m
Period
s
Dir
20/12:30pm ESE 7 10 - - - - - - - 12.8 1018.8 -
20/12:00pm ESE 14 17 - - - - - - - 13.1 1019.2 -
20/11:30am ESE 14 18 - - - - - - - 13.4 1019.7 -
20/11:00am ESE 12 15 - - - - - - - 13.4 1020.4 -
20/10:30am ESE 12 16 - - - - - - - 13.7 1021.1 -
20/10:00am ESE 11 13 - - - - - - - 13.7 1021.2 -
20/09:30am ESE 12 15 - - - - - - - 14.0 1021.5 -
20/09:00am ESE 10 12 - - - - - - - 13.9 1021.7 -
20/08:30am SE 11 14 - - - - - - - 13.9 1021.7 -
20/08:00am ESE 11 13 - - - - - - - 13.8 1021.8 -
20/07:30am SE 8 10 - - - - - - - 13.8 1021.8 -
20/07:00am SSE 8 12 - - - - - - - 13.6 1021.6 -
20/06:30am S 6 8 - - - - - - - 12.9 1022.0 -
20/06:00am S 6 7 - - - - - - - 13.0 1022.3 -
20/05:30am S 8 9 - - - - - - - 12.8 1022.3 -
20/05:00am S 8 10 - - - - - - - 12.7 1022.6 -
20/04:30am S 9 11 - - - - - - - 12.6 1022.2 -
20/04:00am S 8 10 - - - - - - - 12.9 1022.8 -
20/03:30am S 8 10 - - - - - - - 13.1 1023.4 -
20/03:00am S 7 9 - - - - - - - 12.9 1023.6 -
20/02:30am S 7 9 - - - - - - - 13.2 1023.6 -
20/02:00am S 7 8 - - - - - - - 12.9 1023.7 -
20/01:30am S 8 9 - - - - - - - 13.1 1023.9 -
20/01:00am S 7 9 - - - - - - - 13.0 1024.0 -
20/12:30am S 8 9 - - - - - - - 13.1 1024.3 -
20/12:00am S 8 10 - - - - - - - 13.1 1024.5 -
 
Date/Time
EST
Wind Sea
Height
m
Swell Vis
km
Cloud Weather Temp
°C
Press
hPa
Rain since
9am
mm
Dir  Spd
kts
Gust
kts
Height
m
Period
s
Dir
19/11:30pm S 8 9 - - - - - - - 13.0 1024.6 -
19/11:00pm S 8 9 - - - - - - - 12.9 1024.8 -
19/10:30pm S 8 9 - - - - - - - 13.0 1025.2 -
19/10:00pm S 8 10 - - - - - - - 13.1 1025.6 -
19/09:30pm S 9 11 - - - - - - - 13.1 1025.5 -
19/09:00pm S 8 10 - - - - - - - 13.2 1025.8 -
19/08:30pm S 9 11 - - - - - - - 13.2 1025.9 -
19/08:00pm SSW 8 9 - - - - - - - 13.2 1026.0 -
19/07:30pm S 7 9 - - - - - - - 13.0 1026.1 -
19/07:00pm S 8 9 - - - - - - - 13.2 1026.2 -
19/06:30pm S 5 7 - - - - - - - 13.1 1026.2 -
19/06:00pm S 6 6 - - - - - - - 12.8 1025.9 -
19/05:30pm SSE 6 8 - - - - - - - 13.1 1025.7 -
19/05:00pm SSE 7 9 - - - - - - - 13.4 1025.7 -
19/04:30pm SE 8 9 - - - - - - - 13.7 1026.1 -
19/04:00pm SE 6 8 - - - - - - - 13.6 1026.4 -
19/03:30pm SE 7 8 - - - - - - - 13.5 1026.6 -
19/03:00pm SE 7 9 - - - - - - - 13.0 1026.8 -
19/02:30pm ESE 6 8 - - - - - - - 12.8 1027.0 -
19/02:00pm E 8 10 - - - - - - - 12.7 1027.1 -
19/01:30pm E 8 10 - - - - - - - 12.8 1027.5 -
19/01:00pm E 9 11 - - - - - - - 12.6 1027.6 -
19/12:30pm E 8 10 - - - - - - - 12.5 1028.1 -
19/12:00pm E 7 9 - - - - - - - 12.4 1028.7 -
19/11:30am E 9 11 - - - - - - - 12.2 1029.1 -
19/11:00am E 9 11 - - - - - - - 12.5 1029.2 -
19/10:30am ESE 5 9 - - - - - - - 12.6 1029.4 -
19/10:00am S 7 10 - - - - - - - 11.9 1029.5 -
19/09:30am S 8 10 - - - - - - - 11.4 1029.4 -
19/09:00am S 10 11 - - - - - - - 11.1 1029.8 -
19/08:30am S 8 10 - - - - - - - 11.2 1029.9 -
19/08:00am S 10 11 - - - - - - - 10.8 1029.7 -
19/07:30am SSW 6 7 - - - - - - - 11.0 1029.6 -
19/07:00am SSW 7 9 - - - - - - - 11.0 1029.5 -
19/06:30am S 6 8 - - - - - - - 10.8 1029.3 -
19/06:00am S 8 9 - - - - - - - 10.4 1029.2 -
19/05:30am S 9 10 - - - - - - - 10.2 1028.9 -
19/05:00am S 6 7 - - - - - - - 9.7 1028.9 -
19/04:30am S 4 5 - - - - - - - 9.3 1028.9 -
19/04:00am S 4 5 - - - - - - - 9.4 1028.8 -
19/03:30am S 6 7 - - - - - - - 9.0 1028.7 -
19/03:00am S 4 4 - - - - - - - 9.5 1028.8 -
19/02:30am SSW 4 5 - - - - - - - 9.9 1029.0 -
19/02:00am S 4 5 - - - - - - - 9.4 1029.1 -
19/01:30am S 4 6 - - - - - - - 10.1 1029.1 -
19/01:00am SSW 4 6 - - - - - - - 10.2 1029.2 -
19/12:30am S 4 6 - - - - - - - 10.6 1029.3 -
19/12:00am SSW 3 4 - - - - - - - 11.0 1029.4 -
 
Date/Time
EST
Wind Sea
Height
m
Swell Vis
km
Cloud Weather Temp
°C
Press
hPa
Rain since
9am
mm
Dir  Spd
kts
Gust
kts
Height
m
Period
s
Dir
18/11:30pm SSW 4 5 - - - - - - - 10.9 1029.6 -
18/11:00pm S 4 5 - - - - - - - 10.7 1029.6 -
18/10:30pm SSW 5 6 - - - - - - - 11.3 1029.6 -
18/10:00pm SSW 2 3 - - - - - - - 11.7 1029.7 -
18/09:30pm SSW 3 4 - - - - - - - 11.9 1029.5 -
18/09:00pm S 2 4 - - - - - - - 12.4 1029.2 -
18/08:30pm SW 5 7 - - - - - - - 12.8 1029.1 -
18/08:00pm SSW 3 4 - - - - - - - 13.4 1028.9 -
18/07:30pm SW 3 5 - - - - - - - 13.8 1028.7 -
18/07:00pm SSW 1 2 - - - - - - - 14.1 1028.6 -
18/06:30pm W 5 8 - - - - - - - 15.1 1028.2 -
18/06:00pm SW 4 7 - - - - - - - 15.5 1028.0 -
18/05:30pm SW 4 5 - - - - - - - 15.6 1027.7 -
18/05:00pm W 3 4 - - - - - - - 16.6 1027.6 -
18/04:30pm WNW 6 9 - - - - - - - 15.8 1027.6 -
18/04:00pm NW 8 11 - - - - - - - 16.1 1027.6 -
18/03:30pm WSW 3 8 - - - - - - - 18.2 1027.5 -
18/03:00pm NW 9 13 - - - - - - - 15.6 1027.4 -
18/02:30pm WSW 5 9 - - - - - - - 18.2 1027.6 -
18/02:00pm WSW 4 9 - - - - - - - 17.9 1027.8 -
18/01:30pm WSW 5 10 - - - - - - - 17.3 1028.0 -
18/01:00pm WSW 6 13 - - - - - - - 17.0 1028.4 -
18/12:30pm WNW 6 8 - - - - - - - 15.0 1029.0 -
18/12:00pm NW 11 13 - - - - - - - 14.5 1029.0 -
18/11:30am NW 11 13 - - - - - - - 14.2 1029.3 -
18/11:00am NW 11 13 - - - - - - - 13.5 1029.4 -
18/10:30am NW 10 12 - - - - - - - 12.9 1029.4 -
18/10:00am NW 8 9 - - - - - - - 12.9 1029.5 -
18/09:30am NW 8 9 - - - - - - - 11.8 1029.8 -
18/09:00am W 4 9 - - - - - - - 11.6 1029.8 -
18/08:30am WNW 2 5 - - - - - - - 11.5 1029.6 -
18/08:00am W 2 7 - - - - - - - 11.0 1029.3 -
18/07:30am WSW 2 8 - - - - - - - 10.6 1029.0 -
18/07:00am WSW 6 11 - - - - - - - 11.1 1028.7 -
18/06:30am SW 6 9 - - - - - - - 11.2 1028.4 -
18/06:00am S 5 8 - - - - - - - 10.5 1028.2 -
18/05:30am WNW 3 4 - - - - - - - 10.6 1027.9 -
18/05:00am SSE 1 3 - - - - - - - 10.4 1027.8 -
18/04:30am ENE 2 3 - - - - - - - 10.8 1027.5 -
18/04:00am ESE 2 3 - - - - - - - 10.6 1027.6 -
18/03:30am NW 2 4 - - - - - - - 10.4 1027.8 -
18/03:00am ENE 2 3 - - - - - - - 11.0 1027.9 -
18/02:30am SSW 1 4 - - - - - - - 10.8 1028.1 -
18/02:00am W 1 3 - - - - - - - 10.9 1028.2 -
18/01:30am NNW 1 1 - - - - - - - 10.9 1028.1 -
18/01:00am SW 1 2 - - - - - - - 10.6 1028.2 -
18/12:30am WSW 2 3 - - - - - - - 11.1 1028.4 -
18/12:00am W 1 2 - - - - - - - 11.0 1028.3 -
 
Date/Time
EST
Wind Sea
Height
m
Swell Vis
km
Cloud Weather Temp
°C
Press
hPa
Rain since
9am
mm
Dir  Spd
kts
Gust
kts
Height
m
Period
s
Dir
17/11:30pm SW 1 2 - - - - - - - 10.3 1028.4 -
17/11:00pm SSW 1 2 - - - - - - - 10.4 1028.4 -
17/10:30pm S 2 5 - - - - - - - 10.6 1028.1 -
17/10:00pm SSE 2 3 - - - - - - - 10.8 1028.1 -
17/09:30pm S 4 5 - - - - - - - 11.0 1028.0 -
17/09:00pm SW 2 3 - - - - - - - 11.7 1027.6 -
17/08:30pm SSW 2 4 - - - - - - - 12.0 1027.2 -
17/08:00pm S 4 4 - - - - - - - 12.5 1026.9 -
17/07:30pm WSW 4 6 - - - - - - - 13.9 1026.7 -
17/07:00pm W 5 8 - - - - - - - 14.4 1026.4 -
17/06:30pm W 5 7 - - - - - - - 14.5 1026.2 -
17/06:00pm W 5 8 - - - - - - - 14.8 1025.8 -
17/05:30pm WNW 5 8 - - - - - - - 14.7 1025.3 -
17/05:00pm WNW 10 15 - - - - - - - 15.0 1025.0 -
17/04:30pm NW 15 18 - - - - - - - 14.9 1024.7 -
17/04:00pm NW 14 18 - - - - - - - 14.8 1024.5 -
17/03:30pm NW 14 16 - - - - - - - 15.0 1024.6 -
17/03:00pm NW 14 17 - - - - - - - 15.0 1024.5 -
17/02:30pm NW 11 13 - - - - - - - 16.0 1024.5 -
17/02:00pm WNW 9 15 - - - - - - - 16.1 1024.5 -
17/01:30pm NW 12 14 - - - - - - - 15.1 1024.6 -
17/01:00pm NW 13 16 - - - - - - - 14.8 1025.0 -

Other formats

Comma delimited format used in spreadsheet applications
http://www.bom.gov.au/fwo/IDT60701/IDT60701.95963.axf

JavaScript Object Notation format (JSON) in row-major order
http://www.bom.gov.au/fwo/IDT60701/IDT60701.95963.json

Data quality

Most of these data are generated automatically and are frequently updated. Quality checks on data are not normally performed. It is possible for incorrect values to appear. Refer to information at About Latest Weather Observations and please check the disclaimer before using these data.